This is the latest recevied weather packets stored in our database for station/object HA3KHB-6. If no packets are shown the sender has not sent any weather packets the latest 10 day(s).
| Time | Temp. | Humidity | Pressure | Rain* | Wind** | Luminosity | Snow |
|---|---|---|---|---|---|---|---|
| 1777744515 | 18.89° C | 100% | 128.2 hPa | - | - | - | - |
| 1777743918 | 18.89° C | 100% | - | - | - | - | - |
| 1777743318 | 18.89° C | 97% | 71.8 hPa | - | - | - | - |
| 1777742718 | 19.44° C | 95% | 118.5 hPa | - | - | - | - |
| 1777742118 | 20.56° C | 94% | 165.3 hPa | - | - | - | - |
| 1777741518 | 21.11° C | 89% | 326 hPa | - | - | - | - |
| 1777740918 | 21.67° C | 81% | 599.1 hPa | - | - | - | - |
| 1777740318 | 23.33° C | 73% | 858.6 hPa | - | - | - | - |
| 1777739718 | 24.44° C | 74% | 748.3 hPa | - | - | - | - |
| 1777739118 | 24.44° C | 65% | 1305 hPa | - | - | - | - |
| 1777738518 | 26.11° C | 59% | 1490.3 hPa | - | - | - | - |
| 1777737917 | 28.33° C | 47% | 1545.6 hPa | - | - | - | - |
| 1777737317 | 30.56° C | 39% | 1551.8 hPa | - | - | - | - |
| 1777736717 | 33.33° C | 45% | 1461.7 hPa | - | - | - | - |
| 1777736117 | 32.78° C | 42% | 1556.4 hPa | - | - | - | - |
| 1777735517 | 33.33° C | 41% | 1554.6 hPa | - | - | - | - |
| 1777734917 | 33.89° C | 46% | 1341.7 hPa | - | - | - | - |
| 1777734317 | 32.22° C | 48% | 1365.6 hPa | - | - | - | - |
| 1777733717 | 32.22° C | 43% | 1519.2 hPa | - | - | - | - |
| 1777733117 | 33.33° C | 46% | 1282.3 hPa | - | - | - | - |
| 1777732517 | 32.78° C | 50% | 1108.5 hPa | - | - | - | - |
| 1777731917 | 33.33° C | 47% | 1165.3 hPa | - | - | - | - |
| 1777731317 | 34.44° C | 45% | 1125.3 hPa | - | - | - | - |
| 1777730717 | 33.89° C | 48% | 975 hPa | - | - | - | - |
| 1777730117 | 33.89° C | 55% | 604.5 hPa | - | - | - | - |
* Rain since midnight (hover to see other rain measurements)
** Current wind speed in m/s (hover to see current wind gust speed)